Hovedside
METAR-TAF:

METAR-TAF

Lufthavner :

Kristiansund lufthavn. Kvernberget

Kristiansund, Norge

breddegrad: 63-07N, lengdegrad: 007-50E, høyde over havet: 6 m

Gjeldene værobservasjon

Denne rapporten ble laget for 16 minutter siden, klokken 06:20 UTC
Vind 3 kt fra skiftende retning
Temperatur 3°C
Luftfuktighet 65%
Trykk 1018 hPa
Sikt 10 km eller mer
Brutte skyer i en høyde av 5300 ft

METAR: ENKB 150620Z VRB03KT 9999 BKN053 03/M03 Q1018 RMK WIND 745FT 19010KT

Tid: 07:36 (06:36 UTC)

Varsel

Denne rapporten ble laget for 1 time og 36 minutter siden, klokken 05:00 UTC
Varsel gyldig fra 15. klokken 06 UTC til 15. klokken 15 UTC
Vind 5 kt fra Øst-sørøst
Sikt 10 km eller mer
Få skyer i en høyde av 3000 ft
Brutte skyer i en høyde av 5000 ft
Midlertidig
fra 15. klokken 08 UTC til 15. klokken 14 UTC
Brutte skyer i en høyde av 2000 ft, Bygeskyer.

TAF: ENKB 150500Z 1506/1515 12005KT 9999 FEW030 BKN050 TEMPO 1508/1514 BKN020CB

Værobservasjoner og værvarsel for over 4000 flyplasser (METAR- og TAF-rapporter).

Tilgjengelige stasjoner er representert av de røde og gule prikkene på kartet.

Hold musepekeren over prikken for å se navnet på stasjonen.

Klikk så for å se værobservasjoner og -varsler.

For å forandre kartet kan du klikke på den grønne knappen med svart kryss for å zoome inn, på den grønne knappen med strek for å zoome ut, eller på de grønne pilene for å se tilstøtende kart.


METAR-TAF: